Weather History for Ambler, AK

Change the Weather History Date:

Monday, August 5, 2013

  Actual Average Record
Temperature  
Mean Temperature 58 °F -  
Max Temperature 64 °F 57 °F 83 °F (1985)
Min Temperature 51 °F 45 °F 35 °F (2008)
Degree Days  
Heating Degree Days 8    
Growing Degree Days 8 (Base 50)    
Moisture  
Dew Point 52 °F    
Average Humidity 83    
Maximum Humidity 94    
Minimum Humidity 68    
Precipitation  
Precipitation 0.00 in - - ()
Sea Level Pressure  
Sea Level Pressure 29.87 in    
Wind  
Wind Speed 2 mph (East)    
Max Wind Speed 7 mph    
Max Gust Speed -    
Visibility 10 miles    
Events      
Averages and records for this station are not official NWS values.
T = Trace of Precipitation, MM = Missing Value Source: NWS Daily Summary

Daily Weather History Graph

Daily Weather History Graph

Search for Another Location

Airport:

Trip Planner

Search our weather history database for the weather conditions in past years. The results will help you decide how hot, cold, wet, or windy it might be!

Date:

Astronomy

Aug. 05, 2013 Rise Set
Actual Time 5:21 AM AKDT 11:50 PM AKDT
Civil Twilight 2:50 AM AKDT 1:58 AM AKDT
Nautical Twilight Sun does not rise Sun does not rise
Astronomical Twilight Sun does not rise Sun does not rise
Moon 4:42 AM AKDT (8/5) 10:23 PM AKDT (8/5)
Length of Visible Light 23h 08m
Length of Day
18h 29m
Waning Crescent, 1% of the Moon is Illuminated
Aug 5
Waning Crescent
Aug 6
New
Aug 14
First Quarter
Aug 20
Full
Aug 28
Last Quarter

Hourly Weather History & Observations

Time (AKDT) Temp. Dew Point Humidity Pressure Visibility Wind Dir Wind Speed Gust Speed Precip Events Conditions
12:16 AM 55.4 °F 51.8 °F 88% 29.82 in 10.0 mi Calm Calm - N/A   Overcast
12:36 AM 55.4 °F 51.8 °F 88% 29.82 in 10.0 mi Calm Calm - N/A   Overcast
12:56 AM 55.4 °F 51.8 °F 88% 29.83 in 10.0 mi Calm Calm - N/A   Overcast
1:16 AM 55.4 °F 51.8 °F 88% 29.83 in 10.0 mi SW 3.5 mph - N/A   Overcast
1:36 AM 53.6 °F 51.8 °F 94% 29.83 in 10.0 mi Calm Calm - N/A   Overcast
1:56 AM 53.6 °F 51.8 °F 94% 29.84 in 10.0 mi Calm Calm - N/A   Overcast
2:16 AM 53.6 °F 51.8 °F 94% 29.84 in 10.0 mi Calm Calm - N/A   Overcast
2:36 AM 53.6 °F 51.8 °F 94% 29.84 in 10.0 mi Calm Calm - N/A   Overcast
2:56 AM 53.6 °F 51.8 °F 94% 29.85 in 10.0 mi Calm Calm - N/A   Overcast
3:16 AM 53.6 °F 51.8 °F 94% 29.85 in 10.0 mi Calm Calm - N/A   Overcast
3:36 AM 53.6 °F 51.8 °F 94% 29.85 in 10.0 mi Calm Calm - N/A   Overcast
3:56 AM 53.6 °F 50.0 °F 88% 29.85 in 10.0 mi Calm Calm - N/A   Overcast
4:16 AM 51.8 °F 48.2 °F 88% 29.86 in 10.0 mi Calm Calm - N/A   Overcast
4:36 AM 51.8 °F 48.2 °F 88% 29.85 in 10.0 mi Calm Calm - N/A   Overcast
4:56 AM 51.8 °F 48.2 °F 88% 29.85 in 10.0 mi Calm Calm - N/A   Overcast
5:16 AM 51.8 °F 48.2 °F 88% 29.85 in 8.0 mi Calm Calm - N/A   Overcast
5:36 AM 51.8 °F 48.2 °F 88% 29.86 in 10.0 mi Calm Calm - N/A   Overcast
5:56 AM 51.8 °F 48.2 °F 88% 29.86 in 10.0 mi Calm Calm - N/A   Overcast
6:16 AM 51.8 °F 48.2 °F 88% 29.86 in 10.0 mi Calm Calm - N/A   Overcast
6:36 AM 51.8 °F 48.2 °F 88% 29.86 in 10.0 mi Calm Calm - N/A   Overcast
6:56 AM 51.8 °F 48.2 °F 88% 29.86 in 10.0 mi Calm Calm - N/A   Overcast
7:16 AM 51.8 °F 48.2 °F 88% 29.87 in 10.0 mi Calm Calm - N/A   Overcast
7:36 AM 53.6 °F 50.0 °F 88% 29.87 in 10.0 mi Calm Calm - N/A   Overcast
7:56 AM 53.6 °F 50.0 °F 88% 29.87 in 10.0 mi Calm Calm - N/A   Overcast
8:16 AM 53.6 °F 51.8 °F 94% 29.87 in 10.0 mi Calm Calm - N/A   Overcast
8:36 AM 53.6 °F 51.8 °F 94% 29.88 in 10.0 mi Calm Calm - N/A   Overcast
8:56 AM 55.4 °F 51.8 °F 88% 29.87 in 10.0 mi ENE 3.5 mph - N/A   Overcast
9:16 AM 55.4 °F 51.8 °F 88% 29.87 in 10.0 mi Calm Calm - N/A   Overcast
9:36 AM 55.4 °F 51.8 °F 88% 29.88 in 10.0 mi Calm Calm - N/A   Overcast
9:56 AM 55.4 °F 51.8 °F 88% 29.88 in 10.0 mi Calm Calm - N/A   Overcast
10:16 AM 55.4 °F 51.8 °F 88% 29.88 in 10.0 mi Calm Calm - N/A   Overcast
10:36 AM 55.4 °F 51.8 °F 88% 29.88 in 10.0 mi Calm Calm - N/A   Mostly Cloudy
10:56 AM 55.4 °F 53.6 °F 94% 29.89 in 9.0 mi Calm Calm - N/A   Mostly Cloudy
11:16 AM 57.2 °F 53.6 °F 88% 29.89 in 8.0 mi Calm Calm - N/A   Overcast
11:36 AM 57.2 °F 53.6 °F 88% 29.89 in 10.0 mi East 3.5 mph - N/A   Overcast
11:56 AM 57.2 °F 53.6 °F 88% 29.89 in 10.0 mi ESE 3.5 mph - N/A   Overcast
12:16 PM 59.0 °F 53.6 °F 82% 29.89 in 10.0 mi SSE 4.6 mph - N/A   Overcast
12:36 PM 60.8 °F 55.4 °F 82% 29.88 in 10.0 mi SE 4.6 mph - N/A   Overcast
12:56 PM 60.8 °F 53.6 °F 77% 29.88 in 10.0 mi South 5.8 mph - N/A   Overcast
1:16 PM 62.6 °F 53.6 °F 72% 29.88 in 10.0 mi SE 3.5 mph - N/A   Mostly Cloudy
1:36 PM 62.6 °F 53.6 °F 72% 29.88 in 10.0 mi South 5.8 mph - N/A   Mostly Cloudy
1:56 PM 62.6 °F 53.6 °F 72% 29.88 in 10.0 mi SSE 4.6 mph - N/A   Overcast
2:16 PM 62.6 °F 53.6 °F 72% 29.88 in 10.0 mi SE 5.8 mph - N/A   Overcast
2:36 PM 62.6 °F 53.6 °F 72% 29.87 in 10.0 mi ESE 5.8 mph - N/A   Overcast
2:56 PM 62.6 °F 53.6 °F 72% 29.87 in 10.0 mi East 3.5 mph - N/A   Overcast
3:16 PM 64.4 °F 53.6 °F 68% 29.87 in 10.0 mi SSE 5.8 mph - N/A   Overcast
3:36 PM 62.6 °F 53.6 °F 72% 29.87 in 10.0 mi ESE 3.5 mph - N/A   Overcast
3:56 PM 62.6 °F 51.8 °F 68% 29.87 in 10.0 mi SSE 4.6 mph - N/A   Overcast
4:16 PM 62.6 °F 51.8 °F 68% 29.87 in 10.0 mi SE 4.6 mph - N/A   Overcast
4:36 PM 62.6 °F 55.4 °F 77% 29.87 in 10.0 mi ESE 4.6 mph - N/A   Mostly Cloudy
4:56 PM 64.4 °F 55.4 °F 73% 29.86 in 10.0 mi ENE 5.8 mph - N/A   Scattered Clouds
5:16 PM 64.4 °F 55.4 °F 73% 29.87 in 10.0 mi ENE 3.5 mph - N/A   Scattered Clouds
5:36 PM 64.4 °F 53.6 °F 68% 29.87 in 10.0 mi Calm Calm - N/A   Mostly Cloudy
5:56 PM 64.4 °F 53.6 °F 68% 29.87 in 10.0 mi SE 6.9 mph - N/A   Overcast
6:16 PM 60.8 °F 53.6 °F 77% 29.87 in 9.0 mi ENE 3.5 mph - N/A   Mostly Cloudy
6:36 PM 60.8 °F 53.6 °F 77% 29.87 in 10.0 mi NE 4.6 mph - N/A   Mostly Cloudy
6:56 PM 60.8 °F 55.4 °F 82% 29.87 in 10.0 mi NE 4.6 mph - N/A   Mostly Cloudy
7:16 PM 60.8 °F 55.4 °F 82% 29.87 in 10.0 mi NE 4.6 mph - N/A   Scattered Clouds
7:36 PM 60.8 °F 55.4 °F 82% 29.87 in 10.0 mi NE 3.5 mph - N/A   Mostly Cloudy
7:56 PM 60.8 °F 55.4 °F 82% 29.87 in 10.0 mi NE 5.8 mph - N/A   Overcast
8:16 PM 60.8 °F 55.4 °F 82% 29.87 in 10.0 mi NE 4.6 mph - N/A   Overcast
8:36 PM 60.8 °F 55.4 °F 82% 29.87 in 10.0 mi NE 3.5 mph - N/A   Overcast
8:56 PM 59.0 °F 53.6 °F 82% 29.87 in 10.0 mi NNE 4.6 mph - N/A   Overcast
9:16 PM 59.0 °F 53.6 °F 82% 29.87 in 10.0 mi NE 4.6 mph - N/A   Overcast
9:36 PM 57.2 °F 53.6 °F 88% 29.87 in 10.0 mi NNE 3.5 mph - N/A   Mostly Cloudy
9:56 PM 59.0 °F 53.6 °F 82% 29.87 in 10.0 mi North 5.8 mph - N/A   Mostly Cloudy
10:16 PM 59.0 °F 51.8 °F 77% 29.87 in 10.0 mi NNE 5.8 mph - N/A   Overcast
10:36 PM 57.2 °F 51.8 °F 82% 29.87 in 10.0 mi NE 3.5 mph - N/A   Scattered Clouds
10:56 PM 57.2 °F 51.8 °F 82% 29.87 in 10.0 mi NE 4.6 mph - N/A   Clear
11:16 PM 57.2 °F 51.8 °F 82% 29.88 in 10.0 mi NE 4.6 mph - N/A   Scattered Clouds
11:36 PM 57.2 °F 51.8 °F 82% 29.89 in 10.0 mi ENE 3.5 mph - N/A   Mostly Cloudy
11:56 PM 57.2 °F 51.8 °F 82% 29.89 in 10.0 mi SE 3.5 mph - N/A   Overcast